< < Back
Terminal Aerodrome Forecast


Current Version              Previous Versions:   1  2  3  4  5  6  7  8  9  

Terminal Aerodrome Forecast

292
FTUS42 KJAX 290523
TAFJAX
TAF
KJAX 290523Z 2906/3006 05003KT P6SM VCSH SCT020
      TEMPO 2907/2911 5SM SHRA BR BKN020
     FM291400 08012G18KT P6SM VCSH SCT020 BKN035
     FM300100 07006KT P6SM SCT030 SCT250=

Latest METAR

097
SAUS80 KWBC 290700 CCA
MTRJAX
METAR KJAX 290656Z 01004KT 10SM FEW030 SCT250 25/24 A2998 RMK AO2 SLP154
T02500244


USA.gov is the U.S. government's official web portal to all federal, state and local government web resources and services.